Time;durP1;ratioP1;P1;durP2;ratioP2;P2;SDS_P1;SDS_P2;PMS_P1;PMS_P2;Temp;Humidity;BMP_temperature;BMP_pressure;BME280_temperature;BME280_humidity;BME280_pressure;Samples;Min_cycle;Max_cycle;Signal;HPM_P1;HPM_P2
2021/04/05 00:00:41;;;;;;;18.50;8.43;;;;;;;5.43;82.12;100180.72;639597;223;24999;-75
2021/04/05 00:03:09;;;;;;;19.73;9.70;;;;;;;5.68;81.06;100175.39;642193;218;32869;-75
2021/04/05 00:05:37;;;;;;;17.50;9.00;;;;;;;5.66;80.87;100173.39;633432;222;32736;-76
2021/04/05 00:08:05;;;;;;;22.48;10.10;;;;;;;5.83;80.49;100172.95;638453;219;32815;-75
2021/04/05 00:10:33;;;;;;;18.30;9.30;;;;;;;5.48;80.49;100171.70;656833;218;25776;-76
2021/04/05 00:13:01;;;;;;;16.03;8.57;;;;;;;5.53;80.62;100167.51;639154;222;24784;-76
2021/04/05 00:15:29;;;;;;;14.30;8.33;;;;;;;5.48;81.42;100173.45;640854;223;24827;-75
2021/04/05 00:17:57;;;;;;;15.17;8.87;;;;;;;5.41;81.67;100164.55;643424;222;24786;-75
2021/04/05 00:20:25;;;;;;;22.93;10.33;;;;;;;5.31;81.05;100157.47;656393;218;24770;-75
2021/04/05 00:22:53;;;;;;;18.83;8.17;;;;;;;5.27;81.52;100155.24;656903;213;24793;-75
2021/04/05 00:25:21;;;;;;;17.77;8.90;;;;;;;5.23;81.81;100148.20;657216;217;25978;-75
2021/04/05 00:27:48;;;;;;;15.83;7.83;;;;;;;5.30;81.55;100152.44;637138;223;24892;-76
2021/04/05 00:30:17;;;;;;;14.10;7.50;;;;;;;5.24;82.14;100139.53;640826;223;25954;-75
2021/04/05 00:32:46;;;;;;;18.67;8.50;;;;;;;5.26;81.55;100133.80;646427;222;24744;-75
2021/04/05 00:35:15;;;;;;;12.27;7.03;;;;;;;5.32;81.35;100132.04;656231;218;24742;-75
2021/04/05 00:37:42;;;;;;;17.03;7.10;;;;;;;5.17;81.85;100122.05;653651;218;24759;-75
2021/04/05 00:40:11;;;;;;;11.43;7.60;;;;;;;5.24;81.71;100124.07;639006;222;26090;-75
2021/04/05 00:42:39;;;;;;;14.90;7.70;;;;;;;5.65;80.33;100122.27;650024;218;32578;-75
2021/04/05 00:45:08;;;;;;;15.35;7.85;;;;;;;5.77;79.41;100117.94;646302;218;32620;-75
2021/04/05 00:47:37;;;;;;;13.93;7.80;;;;;;;5.83;78.31;100107.14;631043;221;32972;-75
2021/04/05 00:50:08;;;;;;;17.30;7.93;;;;;;;5.09;81.18;100123.09;649362;218;26866;-77
2021/04/05 00:52:37;;;;;;;15.93;7.43;;;;;;;4.74;82.45;100130.31;653089;218;24776;-74
2021/04/05 00:55:06;;;;;;;17.30;7.37;;;;;;;4.77;82.71;100138.64;656404;218;24756;-77
2021/04/05 00:57:34;;;;;;;16.00;7.20;;;;;;;4.75;83.09;100135.35;641762;222;27810;-75
2021/04/05 01:00:03;;;;;;;9.37;6.60;;;;;;;4.62;83.51;100132.00;653780;219;24774;-77
2021/04/05 01:02:34;;;;;;;14.43;8.27;;;;;;;4.75;83.58;100113.45;639556;222;24802;-75
2021/04/05 01:04:58;;;;;;;16.60;7.27;;;;;;;4.90;82.88;100111.99;641249;223;24844;-74
2021/04/05 01:07:26;;;;;;;12.03;7.30;;;;;;;4.89;82.78;100106.48;640696;223;24837;-75
2021/04/05 01:09:54;;;;;;;13.10;6.83;;;;;;;4.98;82.75;100105.83;636868;223;24841;-75
2021/04/05 01:12:22;;;;;;;10.40;6.90;;;;;;;4.83;82.69;100097.92;636860;223;24796;-74
2021/04/05 01:14:50;;;;;;;15.23;6.37;;;;;;;4.97;82.43;100086.97;638968;223;24803;-75
2021/04/05 01:17:18;;;;;;;13.83;7.07;;;;;;;5.05;81.57;100083.34;640061;223;24813;-75
2021/04/05 01:19:46;;;;;;;11.67;6.40;;;;;;;5.03;81.78;100079.23;642169;223;24809;-76
2021/04/05 01:22:15;;;;;;;13.90;6.80;;;;;;;5.07;81.41;100080.68;640487;223;24794;-76
2021/04/05 01:24:43;;;;;;;15.70;6.90;;;;;;;5.02;81.59;100060.84;638666;224;24873;-75
2021/04/05 01:27:11;;;;;;;13.40;6.63;;;;;;;4.95;81.96;100042.92;644332;221;24797;-75
2021/04/05 01:29:39;;;;;;;12.53;6.60;;;;;;;5.10;81.53;100034.05;655583;217;24760;-75
2021/04/05 01:32:08;;;;;;;15.50;7.20;;;;;;;5.13;80.71;100032.99;637629;221;24798;-75
2021/04/05 01:34:38;;;;;;;16.63;6.90;;;;;;;5.10;81.43;100026.78;650313;218;29253;-74
2021/04/05 01:37:06;;;;;;;10.37;6.53;;;;;;;5.16;81.22;100018.11;639920;221;26973;-75
2021/04/05 01:39:35;;;;;;;10.53;7.10;;;;;;;5.09;80.91;100018.23;640531;223;24809;-76
2021/04/05 01:42:04;;;;;;;18.43;6.33;;;;;;;5.04;81.52;100015.16;639333;222;24792;-75
2021/04/05 01:44:33;;;;;;;13.93;7.33;;;;;;;5.10;81.15;100009.56;642594;223;24953;-75
2021/04/05 01:47:01;;;;;;;14.17;6.37;;;;;;;5.10;81.02;100001.83;639728;223;24865;-75
2021/04/05 01:49:29;;;;;;;14.97;6.87;;;;;;;5.09;81.24;100000.66;643847;218;24805;-75
2021/04/05 01:51:57;;;;;;;19.15;6.35;;;;;;;5.32;79.79;99994.09;643100;218;32875;-76
2021/04/05 01:54:25;;;;;;;14.77;6.47;;;;;;;5.02;80.88;99992.55;644464;218;23623;-75
2021/04/05 01:56:53;;;;;;;17.87;6.67;;;;;;;5.04;81.59;99991.97;646072;218;24786;-76
2021/04/05 01:59:20;;;;;;;15.00;5.73;;;;;;;5.14;80.99;99990.34;643604;223;24847;-77
2021/04/05 02:01:48;;;;;;;13.00;6.03;;;;;;;5.30;80.56;99975.34;654516;218;24810;-75
2021/04/05 02:04:16;;;;;;;17.23;6.77;;;;;;;5.13;80.55;99984.02;656651;218;29137;-75
2021/04/05 02:06:44;;;;;;;16.63;6.90;;;;;;;5.20;80.44;99980.84;647742;221;24789;-74
2021/04/05 02:09:12;;;;;;;15.58;6.80;;;;;;;5.59;79.38;99978.73;635555;222;32814;-75
2021/04/05 02:11:40;;;;;;;14.20;6.93;;;;;;;5.33;79.85;99970.42;639906;223;23688;-75
2021/04/05 02:14:08;;;;;;;12.27;6.67;;;;;;;5.21;80.15;99969.63;655139;218;24796;-75
2021/04/05 02:16:36;;;;;;;18.40;7.70;;;;;;;5.44;79.24;99957.53;641424;222;32617;-75
2021/04/05 02:19:03;;;;;;;15.13;6.90;;;;;;;5.84;78.67;99951.36;643513;219;32628;-75
2021/04/05 02:21:31;;;;;;;11.20;6.30;;;;;;;5.34;79.55;99948.37;650538;219;23661;-75
2021/04/05 02:24:02;;;;;;;11.77;7.00;;;;;;;5.26;79.94;99950.75;643711;223;24771;-77
2021/04/05 02:26:30;;;;;;;12.33;6.97;;;;;;;5.16;80.18;99942.54;645359;221;24718;-75
2021/04/05 02:28:58;;;;;;;16.70;6.87;;;;;;;5.12;80.70;99947.11;641647;223;24790;-75
2021/04/05 02:31:25;;;;;;;16.03;6.40;;;;;;;4.82;81.67;99954.59;638380;223;24790;-77
2021/04/05 02:33:53;;;;;;;12.90;7.23;;;;;;;4.89;81.10;99952.70;640123;223;25003;-75
2021/04/05 02:36:21;;;;;;;13.00;6.37;;;;;;;4.95;81.03;99940.67;653517;218;26936;-75
2021/04/05 02:38:49;;;;;;;14.93;7.17;;;;;;;4.92;81.96;99946.03;658556;215;24823;-75
2021/04/05 02:41:17;;;;;;;18.40;8.20;;;;;;;4.82;82.46;99940.42;644180;220;32441;-75
2021/04/05 02:43:45;;;;;;;14.03;7.30;;;;;;;4.68;82.99;99933.25;641259;220;23690;-75
2021/04/05 02:46:13;;;;;;;16.50;7.10;;;;;;;4.85;82.89;99919.57;656409;217;24759;-75
2021/04/05 02:48:41;;;;;;;22.30;7.70;;;;;;;4.53;83.71;99921.98;637383;221;24809;-76
2021/04/05 02:51:09;;;;;;;21.43;7.30;;;;;;;4.47;84.38;99933.55;643179;223;24862;-74
2021/04/05 02:53:37;;;;;;;14.00;7.30;;;;;;;4.54;85.16;99928.78;651826;218;24829;-75
2021/04/05 02:56:06;;;;;;;14.10;6.93;;;;;;;4.66;85.00;99928.69;640601;222;24781;-75
2021/04/05 02:58:34;;;;;;;19.30;7.67;;;;;;;4.79;84.80;99912.31;641631;223;24797;-75
2021/04/05 03:01:02;;;;;;;14.23;7.57;;;;;;;4.77;84.98;99902.92;650442;219;24798;-76
2021/04/05 03:03:30;;;;;;;16.40;6.43;;;;;;;4.90;84.75;99897.66;641064;223;25229;-75
2021/04/05 03:05:58;;;;;;;16.20;6.90;;;;;;;4.99;84.64;99889.71;636868;223;24808;-75
2021/04/05 03:08:27;;;;;;;18.73;7.37;;;;;;;5.14;83.87;99884.66;636087;223;24798;-75
2021/04/05 03:10:56;;;;;;;15.00;7.20;;;;;;;5.18;83.50;99887.34;640257;223;25075;-75
2021/04/05 03:13:23;;;;;;;14.00;7.23;;;;;;;5.31;83.21;99886.75;639004;223;24794;-75
2021/04/05 03:15:51;;;;;;;13.30;6.40;;;;;;;5.31;83.47;99876.91;646183;219;24779;-76
2021/04/05 03:18:19;;;;;;;20.77;7.03;;;;;;;5.35;83.54;99878.33;651915;219;24756;-75
2021/04/05 03:20:47;;;;;;;12.27;6.27;;;;;;;5.32;83.68;99883.23;640275;222;24810;-76
2021/04/05 03:23:15;;;;;;;19.13;7.10;;;;;;;5.41;83.63;99885.56;640390;223;24788;-74
2021/04/05 03:25:43;;;;;;;13.90;6.17;;;;;;;5.56;83.16;99874.51;639467;223;24828;-76
2021/04/05 03:28:11;;;;;;;11.40;5.93;;;;;;;5.67;82.63;99871.91;635785;222;24794;-76
2021/04/05 03:30:39;;;;;;;13.37;6.90;;;;;;;5.98;81.84;99853.98;644723;218;33255;-74
2021/04/05 03:33:08;;;;;;;13.95;7.47;;;;;;;6.02;80.66;99848.91;650474;219;32896;-77
2021/04/05 03:35:36;;;;;;;16.87;7.60;;;;;;;6.22;80.01;99840.37;639514;220;32495;-76
2021/04/05 03:38:04;;;;;;;16.77;7.60;;;;;;;5.93;81.48;99835.01;638705;223;26882;-75
2021/04/05 03:40:32;;;;;;;16.03;7.43;;;;;;;5.86;81.49;99828.19;635940;223;24878;-75
2021/04/05 03:43:02;;;;;;;16.30;7.70;;;;;;;5.83;82.17;99823.75;635253;222;24768;-77
2021/04/05 03:45:31;;;;;;;16.50;6.90;;;;;;;5.75;82.48;99824.36;656022;219;24884;-75
2021/04/05 03:48:01;;;;;;;13.53;6.90;;;;;;;5.82;82.71;99824.70;635642;223;24790;-75
2021/04/05 03:50:29;;;;;;;15.80;8.03;;;;;;;5.53;82.93;99820.59;659111;216;24774;-75
2021/04/05 03:52:58;;;;;;;15.57;7.73;;;;;;;5.66;83.27;99823.83;654943;218;24793;-75
2021/04/05 03:55:26;;;;;;;17.40;8.27;;;;;;;5.47;83.36;99814.62;642109;223;25219;-75
2021/04/05 03:57:54;;;;;;;16.62;8.30;;;;;;;5.64;83.09;99807.20;638584;223;32767;-75
2021/04/05 04:00:23;;;;;;;18.97;8.10;;;;;;;5.64;84.02;99807.20;639284;223;23713;-75
2021/04/05 04:02:51;;;;;;;22.57;7.60;;;;;;;5.45;84.40;99813.93;643823;223;24869;-75
2021/04/05 04:05:23;;;;;;;12.80;8.27;;;;;;;5.43;84.32;99811.95;651365;219;24759;-75
2021/04/05 04:07:51;;;;;;;16.83;6.90;;;;;;;5.51;84.89;99804.44;650420;218;24796;-75
2021/04/05 04:10:17;;;;;;;15.40;7.00;;;;;;;5.40;84.98;99805.28;653466;218;24813;-75
2021/04/05 04:12:44;;;;;;;14.13;8.17;;;;;;;5.32;86.00;99811.03;637825;222;24865;-74
2021/04/05 04:15:13;;;;;;;24.23;8.17;;;;;;;5.51;85.44;99802.67;640154;223;24802;-76
2021/04/05 04:17:43;;;;;;;13.80;7.57;;;;;;;5.61;85.06;99809.17;642657;222;25861;-74
2021/04/05 04:20:12;;;;;;;28.83;9.15;;;;;;;5.36;85.78;99807.29;637601;223;32849;-75
2021/04/05 04:22:40;;;;;;;16.63;7.80;;;;;;;5.25;86.54;99808.61;643620;223;23667;-74
2021/04/05 04:25:08;;;;;;;17.93;7.30;;;;;;;5.19;87.09;99803.92;656371;218;24775;-77
2021/04/05 04:27:37;;;;;;;20.60;7.80;;;;;;;5.27;87.17;99805.91;639428;222;24795;-74
2021/04/05 04:30:05;;;;;;;18.80;6.87;;;;;;;5.28;86.96;99794.17;658412;218;24786;-75
2021/04/05 04:32:34;;;;;;;16.27;8.73;;;;;;;5.57;86.20;99785.88;656284;218;24981;-75
2021/04/05 04:35:02;;;;;;;19.37;8.07;;;;;;;5.64;85.60;99767.68;646539;222;24642;-76
2021/04/05 04:37:29;;;;;;;16.67;7.30;;;;;;;5.78;85.48;99761.39;651326;217;24765;-74
2021/04/05 04:39:58;;;;;;;19.70;8.03;;;;;;;5.76;85.62;99762.78;655322;217;24758;-76
2021/04/05 04:42:25;;;;;;;17.37;8.37;;;;;;;5.77;85.80;99746.83;637900;223;25358;-76
2021/04/05 04:44:53;;;;;;;20.27;9.10;;;;;;;5.86;84.66;99737.88;632015;223;43508;-77
2021/04/05 04:47:21;;;;;;;19.23;8.40;;;;;;;5.84;85.41;99737.19;650439;218;23642;-74
2021/04/05 04:49:49;;;;;;;19.23;8.50;;;;;;;5.89;85.05;99744.53;640006;223;24812;-75
2021/04/05 04:52:17;;;;;;;14.27;7.57;;;;;;;5.92;85.18;99729.67;647060;221;31210;-74
2021/04/05 04:54:46;;;;;;;17.00;7.90;;;;;;;5.92;84.38;99732.72;643604;222;26967;-75
2021/04/05 04:57:14;;;;;;;14.97;7.90;;;;;;;5.92;85.12;99723.69;642044;223;24831;-75
2021/04/05 04:59:43;;;;;;;23.27;9.13;;;;;;;5.94;85.05;99727.78;644514;223;24876;-78
2021/04/05 05:02:11;;;;;;;16.73;8.30;;;;;;;5.99;84.31;99723.52;641567;222;24854;-75
2021/04/05 05:04:38;;;;;;;21.57;9.37;;;;;;;6.13;84.16;99721.06;638584;222;25879;-75
2021/04/05 05:07:06;;;;;;;19.50;9.67;;;;;;;6.08;84.28;99719.36;641822;223;24839;-75
2021/04/05 05:09:34;;;;;;;19.53;9.70;;;;;;;6.16;84.17;99723.38;641037;222;24803;-75
2021/04/05 05:12:02;;;;;;;23.07;9.40;;;;;;;6.22;83.12;99709.98;637626;222;24796;-76
2021/04/05 05:14:30;;;;;;;16.97;9.40;;;;;;;6.30;82.43;99710.13;643580;223;24811;-76
2021/04/05 05:16:58;;;;;;;19.60;8.57;;;;;;;6.30;82.62;99714.00;635173;223;24842;-76
2021/04/05 05:19:26;;;;;;;19.10;9.80;;;;;;;6.30;82.89;99721.75;655001;218;25167;-75
2021/04/05 05:21:54;;;;;;;22.80;10.60;;;;;;;6.54;81.75;99709.80;634780;221;32742;-75
2021/04/05 05:24:22;;;;;;;19.97;9.13;;;;;;;6.60;81.87;99706.68;653610;218;24789;-75
2021/04/05 05:26:50;;;;;;;23.73;9.33;;;;;;;6.66;81.84;99711.81;654495;218;24778;-75
2021/04/05 05:29:18;;;;;;;23.20;9.80;;;;;;;6.51;81.36;99710.08;655580;218;24719;-75
2021/04/05 05:31:45;;;;;;;26.20;11.87;;;;;;;6.29;81.93;99720.11;638976;223;24848;-75
2021/04/05 05:34:13;;;;;;;24.53;10.37;;;;;;;6.25;82.84;99718.75;652945;218;24752;-76
2021/04/05 05:36:42;;;;;;;21.43;10.57;;;;;;;6.22;82.84;99721.59;653045;218;24737;-77
2021/04/05 05:39:09;;;;;;;23.07;10.93;;;;;;;6.13;83.12;99719.77;658203;218;24747;-76
2021/04/05 05:41:44;;;;;;;17.80;10.80;;;;;;;6.20;83.31;99715.75;652044;218;24749;-75
2021/04/05 05:44:13;;;;;;;35.40;18.50;;;;;;;6.19;82.94;99706.34;635680;222;24814;-75
2021/04/05 05:46:44;;;;;;;35.67;20.10;;;;;;;6.34;82.62;99703.77;639585;222;24860;-75
2021/04/05 05:49:16;;;;;;;21.37;14.10;;;;;;;6.34;82.79;99701.67;650089;218;24787;-75
2021/04/05 05:51:47;;;;;;;24.27;15.10;;;;;;;6.50;82.96;99700.22;638259;222;24879;-76
2021/04/05 05:54:20;;;;;;;147.63;94.63;;;;;;;6.57;82.13;99695.80;657405;217;24762;-76
2021/04/05 05:56:50;;;;;;;61.90;39.00;;;;;;;6.68;81.34;99704.74;652606;218;24758;-75
2021/04/05 05:59:20;;;;;;;45.20;24.97;;;;;;;6.53;82.37;99703.83;653933;218;24757;-75
2021/04/05 06:01:50;;;;;;;84.15;53.23;;;;;;;6.83;81.04;99708.10;637816;223;32845;-76
2021/04/05 06:04:25;;;;;;;96.32;57.67;;;;;;;6.57;81.92;99703.08;636469;223;32967;-75
2021/04/05 06:06:55;;;;;;;66.47;42.60;;;;;;;6.53;82.41;99697.37;655103;218;26823;-75
2021/04/05 06:09:24;;;;;;;59.57;39.43;;;;;;;6.69;82.19;99692.16;642685;222;24789;-75
2021/04/05 06:11:55;;;;;;;30.03;15.40;;;;;;;6.73;81.50;99692.23;642372;222;24797;-76
2021/04/05 06:14:24;;;;;;;29.48;16.30;;;;;;;6.79;81.37;99686.06;637598;221;32766;-75
2021/04/05 06:16:55;;;;;;;33.33;15.88;;;;;;;6.65;80.91;99670.13;653682;217;43279;-76
2021/04/05 06:19:28;;;;;;;25.90;14.07;;;;;;;6.70;81.13;99680.87;653233;216;23679;-75
2021/04/05 06:21:59;;;;;;;31.62;16.27;;;;;;;6.63;81.52;99678.50;634052;222;32632;-75
2021/04/05 06:24:29;;;;;;;31.87;16.30;;;;;;;6.70;81.45;99672.64;655856;218;25803;-75
2021/04/05 06:26:58;;;;;;;33.67;13.90;;;;;;;6.68;81.28;99684.07;639007;221;27986;-75
2021/04/05 06:29:30;;;;;;;27.33;13.73;;;;;;;6.71;81.26;99677.34;659009;216;26322;-78
2021/04/05 06:32:06;;;;;;;25.57;14.97;;;;;;;6.79;80.77;99657.64;650145;218;24730;-74
2021/04/05 06:34:41;;;;;;;27.40;16.73;;;;;;;6.83;81.02;99657.70;639623;222;28015;-75
2021/04/05 06:37:11;;;;;;;25.40;14.37;;;;;;;6.87;80.52;99652.26;651018;218;24739;-76
2021/04/05 06:39:41;;;;;;;35.20;15.83;;;;;;;6.90;80.51;99643.78;641182;223;24805;-75
2021/04/05 06:42:17;;;;;;;28.83;16.40;;;;;;;6.92;80.56;99647.04;640095;223;24823;-75
2021/04/05 06:44:59;;;;;;;27.20;13.43;;;;;;;6.94;80.66;99647.72;640406;223;24795;-76
2021/04/05 06:47:33;;;;;;;22.43;12.70;;;;;;;6.96;80.29;99643.70;655577;218;25024;-75
2021/04/05 06:50:04;;;;;;;31.75;16.07;;;;;;;7.05;80.33;99654.05;650372;218;32598;-74
2021/04/05 06:52:37;;;;;;;28.53;13.83;;;;;;;6.97;81.29;99662.95;638240;223;23723;-75
2021/04/05 06:55:14;;;;;;;27.83;14.10;;;;;;;7.13;80.33;99676.14;639814;222;25889;-75
2021/04/05 06:57:47;;;;;;;29.27;14.03;;;;;;;7.20;80.06;99667.86;655854;219;24751;-75
2021/04/05 07:00:16;;;;;;;26.20;14.40;;;;;;;7.29;80.19;99654.08;640198;223;24797;-76
2021/04/05 07:02:53;;;;;;;29.80;16.97;;;;;;;7.35;80.31;99659.54;642843;223;24781;-75
2021/04/05 07:05:29;;;;;;;32.60;16.40;;;;;;;7.45;80.10;99654.33;641430;222;24763;-75
2021/04/05 07:07:57;;;;;;;25.50;14.20;;;;;;;7.42;79.63;99654.61;639884;222;24599;-74
2021/04/05 07:10:26;;;;;;;27.73;14.17;;;;;;;7.44;79.63;99639.77;641298;222;24773;-74
2021/04/05 07:12:58;;;;;;;31.20;16.67;;;;;;;7.40;79.27;99636.65;641203;223;24787;-74
2021/04/05 07:15:28;;;;;;;30.47;16.10;;;;;;;7.50;80.52;99642.29;640979;223;25913;-75
2021/04/05 07:17:59;;;;;;;33.88;17.85;;;;;;;7.77;78.64;99634.59;632701;222;32763;-75
2021/04/05 07:20:29;;;;;;;34.60;18.98;;;;;;;7.85;78.54;99623.03;646531;219;32894;-75
2021/04/05 07:23:02;;;;;;;31.90;16.90;;;;;;;7.76;79.10;99633.44;651101;218;23636;-75
2021/04/05 07:25:30;;;;;;;29.67;17.23;;;;;;;7.87;78.76;99632.77;654838;216;24758;-75
2021/04/05 07:28:01;;;;;;;35.03;18.07;;;;;;;7.88;77.50;99624.52;651197;217;24748;-76
2021/04/05 07:30:31;;;;;;;28.77;15.33;;;;;;;7.89;78.54;99633.94;638750;221;24797;-75
2021/04/05 07:33:05;;;;;;;29.20;14.50;;;;;;;7.84;76.99;99630.94;644642;219;24772;-76
2021/04/05 07:35:36;;;;;;;27.67;14.60;;;;;;;8.10;77.24;99622.05;640618;223;24805;-77
2021/04/05 07:38:04;;;;;;;34.53;17.20;;;;;;;8.30;77.12;99616.63;639719;223;24801;-75
2021/04/05 07:40:40;;;;;;;26.13;13.73;;;;;;;8.10;76.40;99609.09;640557;223;28018;-75
2021/04/05 07:43:10;;;;;;;27.90;16.10;;;;;;;8.31;75.87;99609.20;653651;218;24731;-75
2021/04/05 07:45:40;;;;;;;30.10;16.20;;;;;;;8.31;76.58;99601.42;643442;223;24855;-75
2021/04/05 07:48:09;;;;;;;31.37;16.00;;;;;;;8.16;76.82;99606.73;642766;223;24793;-75
2021/04/05 07:50:37;;;;;;;32.90;15.60;;;;;;;8.23;77.21;99596.63;651689;218;24771;-75
2021/04/05 07:53:07;;;;;;;31.07;16.87;;;;;;;8.21;77.10;99600.66;644503;223;24879;-75
2021/04/05 07:55:35;;;;;;;31.37;16.47;;;;;;;8.17;76.60;99595.44;641088;224;24845;-75
2021/04/05 07:58:06;;;;;;;33.25;18.50;;;;;;;8.26;76.23;99583.38;638309;222;32826;-75
2021/04/05 08:00:36;;;;;;;28.30;14.43;;;;;;;8.47;75.09;99572.78;641445;223;26849;-75
2021/04/05 08:03:05;;;;;;;27.73;15.70;;;;;;;8.54;73.98;99573.80;644213;223;24788;-75
2021/04/05 08:05:39;;;;;;;32.10;15.40;;;;;;;8.62;74.27;99580.38;641169;222;29353;-76
2021/04/05 08:08:33;;;;;;;30.93;15.03;;;;;;;8.53;74.24;99561.81;639905;223;24783;-75
2021/04/05 08:11:06;;;;;;;28.93;14.70;;;;;;;8.61;73.67;99567.08;654696;219;26895;-75
2021/04/05 08:13:39;;;;;;;27.80;14.20;;;;;;;8.65;73.68;99558.03;642895;223;24854;-75
2021/04/05 08:16:09;;;;;;;31.33;16.80;;;;;;;8.70;72.43;99558.87;645630;218;33202;-75
2021/04/05 08:18:38;;;;;;;26.07;16.60;;;;;;;8.49;72.81;99557.89;655396;219;24769;-76
2021/04/05 08:21:07;;;;;;;27.33;15.40;;;;;;;8.66;73.69;99558.37;635833;222;25034;-75
2021/04/05 08:23:37;;;;;;;32.05;17.07;;;;;;;8.70;72.91;99555.80;633811;223;32733;-74
2021/04/05 08:26:12;;;;;;;33.13;17.87;;;;;;;8.60;72.35;99533.88;647525;218;32584;-76
2021/04/05 08:28:37;;;;;;;29.30;17.92;;;;;;;8.73;72.59;99546.94;646115;218;32609;-77
2021/04/05 08:31:11;;;;;;;27.60;15.17;;;;;;;8.73;72.65;99546.45;640640;223;26870;-75
2021/04/05 08:33:44;;;;;;;26.90;14.53;;;;;;;8.74;73.16;99550.67;651806;218;24779;-75
2021/04/05 08:36:14;;;;;;;28.43;14.87;;;;;;;8.53;72.36;99551.45;639803;223;26056;-76
2021/04/05 08:38:46;;;;;;;35.37;14.87;;;;;;;8.73;71.95;99548.23;637893;221;24914;-76
2021/04/05 08:41:19;;;;;;;28.45;16.27;;;;;;;8.87;72.17;99551.59;649241;218;32657;-77
2021/04/05 08:43:48;;;;;;;29.47;16.30;;;;;;;8.81;72.51;99543.91;641194;223;23973;-76
2021/04/05 08:46:16;;;;;;;31.40;14.00;;;;;;;9.03;72.11;99543.11;651630;218;25034;-76
2021/04/05 08:48:44;;;;;;;32.33;15.20;;;;;;;9.07;72.41;99549.61;651975;218;25130;-75
2021/04/05 08:51:12;;;;;;;26.47;15.50;;;;;;;8.71;73.41;99544.95;648728;213;32610;-75
2021/04/05 08:53:40;;;;;;;32.28;17.73;;;;;;;9.44;72.18;99541.58;635128;223;32761;-75
2021/04/05 08:56:09;;;;;;;34.73;17.48;;;;;;;9.38;72.87;99538.28;633176;223;32758;-76
2021/04/05 08:58:39;;;;;;;30.93;15.90;;;;;;;9.59;72.42;99534.02;640538;222;23713;-76
2021/04/05 09:01:07;;;;;;;31.67;15.83;;;;;;;9.67;70.84;99517.16;641859;222;25040;-76
2021/04/05 09:03:36;;;;;;;35.00;17.27;;;;;;;9.71;71.54;99517.17;632099;223;43441;-76
2021/04/05 09:06:06;;;;;;;32.67;17.03;;;;;;;9.36;72.65;99510.38;641410;223;24813;-75
2021/04/05 09:08:34;;;;;;;32.90;15.83;;;;;;;9.22;73.07;99498.80;648751;218;25268;-77
2021/04/05 09:11:03;;;;;;;34.17;15.80;;;;;;;9.48;72.36;99516.93;634528;223;24808;-75
2021/04/05 09:13:32;;;;;;;42.00;16.03;;;;;;;9.21;72.16;99507.55;650598;218;24763;-77
2021/04/05 09:16:44;;;;;;;33.20;17.80;;;;;;;9.25;72.73;99506.27;632317;223;32791;-75
2021/04/05 09:19:41;;;;;;;25.73;15.97;;;;;;;9.29;73.07;99509.35;636355;223;23643;-75
2021/04/05 09:22:37;;;;;;;30.20;16.23;;;;;;;9.23;72.72;99497.34;631809;223;30224;-75
2021/04/05 09:25:10;;;;;;;23.93;14.40;;;;;;;9.07;72.79;99491.25;648398;218;24752;-74
2021/04/05 09:28:04;;;;;;;31.40;14.67;;;;;;;9.04;73.62;99505.34;640892;222;24583;-76
2021/04/05 09:30:39;;;;;;;31.00;15.60;;;;;;;9.16;72.83;99500.72;641419;222;24800;-76
2021/04/05 09:33:32;;;;;;;30.73;14.50;;;;;;;9.40;72.50;99510.39;640752;223;24793;-77
2021/04/05 09:36:08;;;;;;;37.87;15.00;;;;;;;9.10;72.72;99507.80;654459;219;24779;-76
2021/04/05 09:38:43;;;;;;;29.70;15.60;;;;;;;9.10;73.94;99508.61;653146;218;24761;-74
2021/04/05 09:41:17;;;;;;;31.13;14.07;;;;;;;9.20;73.36;99505.44;639525;222;24804;-75
2021/04/05 09:43:58;;;;;;;28.13;14.33;;;;;;;9.27;73.49;99511.30;647128;218;24786;-76
2021/04/05 09:46:31;;;;;;;26.53;13.23;;;;;;;9.23;73.00;99517.28;653054;218;29064;-76
2021/04/05 09:49:03;;;;;;;31.63;14.17;;;;;;;9.09;74.36;99492.72;639327;221;24774;-74
2021/04/05 09:51:39;;;;;;;28.20;15.57;;;;;;;9.21;73.84;99499.77;655457;217;25023;-76
2021/04/05 09:54:10;;;;;;;33.97;15.20;;;;;;;9.29;73.94;99501.57;644463;223;24854;-75
2021/04/05 09:56:39;;;;;;;28.67;13.13;;;;;;;9.43;73.17;99488.86;657367;218;25148;-76
2021/04/05 09:59:07;;;;;;;31.07;13.37;;;;;;;9.51;72.69;99486.28;641684;223;24813;-78
2021/04/05 10:01:35;;;;;;;28.40;12.73;;;;;;;9.62;72.26;99490.87;635604;222;24804;-76
2021/04/05 10:04:03;;;;;;;30.00;12.77;;;;;;;9.48;73.36;99491.78;652891;218;25013;-77
2021/04/05 10:06:31;;;;;;;22.40;12.27;;;;;;;9.81;72.91;99502.28;653389;217;23781;-77
2021/04/05 10:08:59;;;;;;;24.27;12.50;;;;;;;9.73;72.33;99516.06;647235;219;24756;-75
2021/04/05 10:11:28;;;;;;;21.67;12.80;;;;;;;9.82;71.96;99496.92;652941;219;24865;-75
2021/04/05 10:13:57;;;;;;;25.30;12.63;;;;;;;9.61;73.13;99511.31;653987;217;24745;-76
2021/04/05 10:16:25;;;;;;;29.77;15.78;;;;;;;9.51;72.92;99508.34;650524;217;32656;-74
2021/04/05 10:18:53;;;;;;;31.20;13.43;;;;;;;9.49;73.39;99513.36;651345;217;23694;-75
2021/04/05 10:21:21;;;;;;;31.30;14.73;;;;;;;9.48;73.38;99514.33;652132;217;28378;-76
2021/04/05 10:23:51;;;;;;;34.90;13.27;;;;;;;9.57;73.27;99507.38;651829;219;26191;-76
2021/04/05 10:26:20;;;;;;;29.32;14.60;;;;;;;9.53;72.79;99506.40;632994;222;32777;-76
2021/04/05 10:28:48;;;;;;;26.97;13.20;;;;;;;9.41;72.09;99499.85;637942;223;24833;-76
2021/04/05 10:31:16;;;;;;;26.80;14.73;;;;;;;9.41;72.88;99516.72;634095;223;32653;-76
2021/04/05 10:33:45;;;;;;;32.87;13.53;;;;;;;9.40;73.47;99512.50;643167;223;24769;-77
2021/04/05 10:36:13;;;;;;;25.50;13.47;;;;;;;9.15;72.79;99493.91;642929;222;24780;-76
2021/04/05 10:38:42;;;;;;;28.77;13.70;;;;;;;9.34;73.63;99496.27;643572;223;24799;-77
2021/04/05 10:41:10;;;;;;;21.20;12.13;;;;;;;9.17;73.44;99493.27;639447;222;25146;-77
2021/04/05 10:43:39;;;;;;;28.77;14.28;;;;;;;9.26;74.08;99499.29;636059;223;44911;-76
2021/04/05 10:46:07;;;;;;;23.13;13.73;;;;;;;9.30;73.22;99488.95;658219;218;26795;-75
2021/04/05 10:48:38;;;;;;;20.53;12.63;;;;;;;9.42;74.29;99491.09;638635;222;24805;-77
2021/04/05 10:51:06;;;;;;;30.73;12.67;;;;;;;9.37;72.91;99468.70;639041;223;24859;-76
2021/04/05 10:53:34;;;;;;;24.17;12.23;;;;;;;9.48;73.62;99476.70;640823;222;24738;-75
2021/04/05 10:56:03;;;;;;;25.77;14.98;;;;;;;9.53;73.11;99483.03;636081;223;33352;-76
2021/04/05 10:58:31;;;;;;;20.73;11.97;;;;;;;9.43;73.24;99470.69;640546;223;23655;-76
2021/04/05 11:00:59;;;;;;;24.35;12.90;;;;;;;9.45;73.04;99469.23;642454;217;32852;-76
2021/04/05 11:03:28;;;;;;;24.50;11.73;;;;;;;9.30;72.42;99470.30;654661;218;23628;-76
2021/04/05 11:05:57;;;;;;;27.70;11.50;;;;;;;9.24;72.98;99461.83;654604;217;24730;-75
2021/04/05 11:08:25;;;;;;;28.00;10.60;;;;;;;9.25;73.51;99455.66;650299;218;24786;-75
2021/04/05 11:10:53;;;;;;;29.13;11.17;;;;;;;9.30;72.22;99452.63;638222;223;25945;-76
2021/04/05 11:13:22;;;;;;;26.00;9.90;;;;;;;9.25;71.82;99456.97;637858;223;29132;-76
2021/04/05 11:15:49;;;;;;;23.53;10.30;;;;;;;9.19;72.48;99457.59;643623;223;24758;-75
2021/04/05 11:18:18;;;;;;;14.53;9.37;;;;;;;9.10;72.19;99463.22;655155;218;24764;-76
2021/04/05 11:20:45;;;;;;;17.37;9.37;;;;;;;9.13;72.45;99462.90;645461;218;24746;-76
2021/04/05 11:23:14;;;;;;;20.93;11.13;;;;;;;9.10;72.64;99483.16;632499;222;31975;-76
2021/04/05 11:25:41;;;;;;;25.37;9.23;;;;;;;9.06;72.79;99457.20;654845;217;24752;-76
2021/04/05 11:28:10;;;;;;;15.13;9.10;;;;;;;9.19;73.17;99470.56;656316;216;24696;-75
2021/04/05 11:30:39;;;;;;;18.43;9.47;;;;;;;9.29;72.53;99465.24;647713;222;24777;-75
2021/04/05 11:33:08;;;;;;;17.70;8.47;;;;;;;9.26;72.68;99455.19;657092;218;24747;-76
2021/04/05 11:35:37;;;;;;;15.27;8.33;;;;;;;9.20;72.79;99461.81;649569;218;24762;-76
2021/04/05 11:38:05;;;;;;;17.63;8.63;;;;;;;9.18;72.58;99452.08;639167;221;24826;-76
2021/04/05 11:40:33;;;;;;;15.33;8.63;;;;;;;9.22;72.59;99444.31;643044;223;24848;-75